createdAt,value
2022-07-29T00:00:52.104Z,17.06
2022-07-29T00:03:18.636Z,17.22
2022-07-29T00:05:45.261Z,17.09
2022-07-29T00:08:12.727Z,16.75
2022-07-29T00:10:39.621Z,16.69
2022-07-29T00:13:06.333Z,16.99
2022-07-29T00:15:32.892Z,16.91
2022-07-29T00:17:59.406Z,16.59
2022-07-29T00:20:25.918Z,16.96
2022-07-29T00:22:52.365Z,16.89
2022-07-29T00:25:18.783Z,16.91
2022-07-29T00:27:45.247Z,16.90
2022-07-29T00:30:11.924Z,16.95
2022-07-29T00:32:38.620Z,16.98
2022-07-29T00:35:06.003Z,16.92
2022-07-29T00:37:32.557Z,16.93
2022-07-29T00:39:59.004Z,16.91
2022-07-29T00:42:25.413Z,16.83
2022-07-29T00:44:51.869Z,16.81
2022-07-29T00:47:18.384Z,16.48
2022-07-29T00:49:44.908Z,16.86
2022-07-29T00:52:12.530Z,16.45
2022-07-29T00:54:44.493Z,16.70
2022-07-29T00:57:12.949Z,16.42
2022-07-29T00:59:39.462Z,16.41
2022-07-29T01:02:06.038Z,16.62
2022-07-29T01:04:33.177Z,16.78
2022-07-29T01:07:02.351Z,16.56
2022-07-29T01:09:42.187Z,16.64
2022-07-29T01:12:15.936Z,16.38
2022-07-29T01:14:42.926Z,16.51
2022-07-29T01:17:20.984Z,16.34
2022-07-29T01:19:53.487Z,16.50
2022-07-29T01:22:28.891Z,16.53
2022-07-29T01:25:13.987Z,16.55
2022-07-29T01:27:56.534Z,16.50
2022-07-29T01:30:25.751Z,16.39
2022-07-29T01:32:57.257Z,16.36
2022-07-29T01:35:34.708Z,16.36
2022-07-29T01:38:30.208Z,16.41
2022-07-29T01:41:15.511Z,16.39
2022-07-29T01:43:52.747Z,16.35
2022-07-29T01:46:25.429Z,16.34
2022-07-29T01:48:58.499Z,16.27
2022-07-29T01:51:30.045Z,16.29
2022-07-29T01:54:05.134Z,16.04
2022-07-29T01:56:34.095Z,16.15
2022-07-29T01:59:03.925Z,16.24
2022-07-29T02:01:33.574Z,15.83
2022-07-29T02:04:04.878Z,16.16
2022-07-29T02:06:34.298Z,15.90
2022-07-29T02:09:03.140Z,16.01
2022-07-29T02:11:34.117Z,16.07
2022-07-29T02:14:02.876Z,16.10
2022-07-29T02:16:33.014Z,16.12
2022-07-29T02:19:03.684Z,15.88
2022-07-29T02:21:32.966Z,15.95
2022-07-29T02:24:02.753Z,15.83
2022-07-29T02:26:31.341Z,15.99
2022-07-29T02:28:59.590Z,15.99
2022-07-29T02:31:29.647Z,15.90
2022-07-29T02:33:58.043Z,15.88
2022-07-29T02:36:25.933Z,15.74
2022-07-29T02:38:53.741Z,15.67
2022-07-29T02:41:34.335Z,15.82
2022-07-29T02:44:10.108Z,15.69
2022-07-29T02:46:38.614Z,15.83
2022-07-29T02:49:14.483Z,15.62
2022-07-29T02:51:47.639Z,15.80
2022-07-29T02:54:27.013Z,15.82
2022-07-29T02:56:56.227Z,15.68
2022-07-29T02:59:25.846Z,15.44
2022-07-29T03:01:55.168Z,15.60
2022-07-29T03:04:25.139Z,15.35
2022-07-29T03:06:53.765Z,15.36
2022-07-29T03:09:21.754Z,15.51
2022-07-29T03:11:50.728Z,15.46
2022-07-29T03:14:21.518Z,15.39
2022-07-29T03:16:49.120Z,15.31
2022-07-29T03:19:16.358Z,15.42
2022-07-29T03:21:42.894Z,15.43
2022-07-29T03:24:10.839Z,15.52
2022-07-29T03:26:37.842Z,15.45
2022-07-29T03:29:04.332Z,15.11
2022-07-29T03:31:30.841Z,15.47
2022-07-29T03:33:57.403Z,15.41
2022-07-29T03:36:23.867Z,15.42
2022-07-29T03:38:51.215Z,14.98
2022-07-29T03:41:22.324Z,15.32
2022-07-29T03:43:51.111Z,15.17
2022-07-29T03:46:19.089Z,15.25
2022-07-29T03:48:51.640Z,15.32
2022-07-29T03:51:18.299Z,15.30
2022-07-29T03:54:00.371Z,14.92
2022-07-29T03:56:28.985Z,14.80
2022-07-29T03:58:55.630Z,15.19
2022-07-29T04:01:23.390Z,15.16
2022-07-29T04:03:50.008Z,15.03
2022-07-29T04:06:16.487Z,15.15
2022-07-29T04:08:42.926Z,14.84
2022-07-29T04:11:09.442Z,15.02
2022-07-29T04:13:35.876Z,14.72
2022-07-29T04:16:02.348Z,14.76
2022-07-29T04:18:28.884Z,15.09
2022-07-29T04:20:55.365Z,14.92
2022-07-29T04:23:21.833Z,14.95
2022-07-29T04:25:48.441Z,15.13
2022-07-29T04:28:14.871Z,15.25
2022-07-29T04:30:43.648Z,15.08
2022-07-29T04:33:10.203Z,14.93
2022-07-29T04:35:50.509Z,15.05
2022-07-29T04:38:19.039Z,15.07
2022-07-29T04:40:45.475Z,15.14
2022-07-29T04:43:14.247Z,14.85
2022-07-29T04:45:42.176Z,15.16
2022-07-29T04:48:08.796Z,15.13
2022-07-29T04:50:35.316Z,14.79
2022-07-29T04:53:01.728Z,15.09
2022-07-29T04:55:28.160Z,15.12
2022-07-29T04:57:54.586Z,15.09
2022-07-29T05:00:21.230Z,14.84
2022-07-29T05:02:54.557Z,15.30
2022-07-29T05:05:21.076Z,15.16
2022-07-29T05:07:47.504Z,14.92
2022-07-29T05:10:13.951Z,15.34
2022-07-29T05:12:40.418Z,15.05
2022-07-29T05:15:07.415Z,15.33
2022-07-29T05:17:33.922Z,15.07
2022-07-29T05:20:00.363Z,14.94
2022-07-29T05:22:26.808Z,15.35
2022-07-29T05:24:53.230Z,15.39
2022-07-29T05:27:20.004Z,14.94
2022-07-29T05:29:46.452Z,14.97
2022-07-29T05:32:15.922Z,15.23
2022-07-29T05:34:50.920Z,15.33
2022-07-29T05:37:21.495Z,15.36
2022-07-29T05:39:50.631Z,15.12
2022-07-29T05:42:22.982Z,15.32
2022-07-29T05:44:49.517Z,15.38
2022-07-29T05:47:16.015Z,15.58
2022-07-29T05:49:42.477Z,15.31
2022-07-29T05:52:09.202Z,15.53
2022-07-29T05:54:36.069Z,15.34
2022-07-29T05:57:03.077Z,15.67
2022-07-29T05:59:30.567Z,15.50
2022-07-29T06:01:57.299Z,15.71
2022-07-29T06:04:23.948Z,16.02
2022-07-29T06:06:50.419Z,15.47
2022-07-29T06:09:16.910Z,15.59
2022-07-29T06:11:43.350Z,15.95
2022-07-29T06:14:09.846Z,16.26
2022-07-29T06:16:36.533Z,16.19
2022-07-29T06:19:03.108Z,16.47
2022-07-29T06:21:29.574Z,16.57
2022-07-29T06:23:56.004Z,16.36
2022-07-29T06:26:30.690Z,17.40
2022-07-29T06:28:58.036Z,17.05
2022-07-29T06:31:24.541Z,16.99
2022-07-29T06:33:51.052Z,17.79
2022-07-29T06:36:17.486Z,17.71
2022-07-29T06:38:49.467Z,17.55
2022-07-29T06:41:18.408Z,18.64
2022-07-29T06:43:51.081Z,18.62
2022-07-29T06:46:22.022Z,19.63
2022-07-29T06:48:49.757Z,19.23
2022-07-29T06:51:16.553Z,18.57
2022-07-29T06:53:59.075Z,19.76
2022-07-29T06:56:29.348Z,20.11
2022-07-29T06:58:55.919Z,20.88
2022-07-29T07:01:22.466Z,20.87
2022-07-29T07:03:49.088Z,20.53
2022-07-29T07:06:15.550Z,21.07
2022-07-29T07:08:42.138Z,21.35
2022-07-29T07:11:09.128Z,20.78
2022-07-29T07:13:36.634Z,20.64
2022-07-29T07:16:04.186Z,20.31
2022-07-29T07:18:30.808Z,19.93
2022-07-29T07:20:57.931Z,20.26
2022-07-29T07:23:24.780Z,20.51
2022-07-29T07:25:51.419Z,19.82
2022-07-29T07:28:17.957Z,21.44
2022-07-29T07:30:45.853Z,21.73
2022-07-29T07:33:12.441Z,22.32
2022-07-29T07:35:38.894Z,22.78
2022-07-29T07:38:05.380Z,22.87
2022-07-29T07:40:31.834Z,23.28
2022-07-29T07:42:58.448Z,23.62
2022-07-29T07:45:25.376Z,23.02
2022-07-29T07:47:51.851Z,22.67
2022-07-29T07:50:19.177Z,22.74
2022-07-29T07:52:53.962Z,23.19
2022-07-29T07:55:20.825Z,23.26
2022-07-29T07:57:47.958Z,23.82
2022-07-29T08:00:15.873Z,24.27
2022-07-29T08:02:42.625Z,24.08
2022-07-29T08:05:12.842Z,23.21
2022-07-29T08:07:39.631Z,24.19
2022-07-29T08:10:06.546Z,23.13
2022-07-29T08:12:33.059Z,22.29
2022-07-29T08:14:59.525Z,24.17
2022-07-29T08:17:25.978Z,24.14
2022-07-29T08:19:52.410Z,24.03
2022-07-29T08:22:18.832Z,24.20
2022-07-29T08:24:45.383Z,24.63
2022-07-29T08:27:33.372Z,25.09
2022-07-29T08:29:58.513Z,25.55
2022-07-29T08:32:43.765Z,25.71
2022-07-29T08:35:11.437Z,24.78
2022-07-29T08:37:37.879Z,26.41
2022-07-29T08:40:04.762Z,23.75
2022-07-29T08:42:31.440Z,25.09
2022-07-29T08:44:58.821Z,25.81
2022-07-29T08:47:26.801Z,25.67
2022-07-29T08:49:53.285Z,26.91
2022-07-29T08:52:21.292Z,25.76
2022-07-29T08:54:48.533Z,27.01
2022-07-29T08:57:15.729Z,27.36
2022-07-29T08:59:47.634Z,26.95
2022-07-29T09:02:20.951Z,27.18
2022-07-29T09:04:48.159Z,26.98
2022-07-29T09:07:19.885Z,26.99
2022-07-29T09:09:47.274Z,27.99
2022-07-29T09:12:13.918Z,27.43
2022-07-29T09:14:56.068Z,26.81
2022-07-29T09:17:47.815Z,28.05
2022-07-29T09:20:17.811Z,27.81
2022-07-29T09:22:44.933Z,28.02
2022-07-29T09:25:13.128Z,27.30
2022-07-29T09:27:39.814Z,27.72
2022-07-29T09:30:08.943Z,28.78
2022-07-29T09:32:55.173Z,28.98
2022-07-29T09:35:25.072Z,29.01
2022-07-29T09:37:52.028Z,29.15
2022-07-29T09:40:20.139Z,28.71
2022-07-29T09:42:47.472Z,29.85
2022-07-29T09:45:27.513Z,28.61
2022-07-29T09:47:54.002Z,29.17
2022-07-29T09:50:21.265Z,28.99
2022-07-29T09:52:50.260Z,28.55
2022-07-29T09:55:18.193Z,29.04
2022-07-29T09:57:46.212Z,28.39
2022-07-29T10:00:12.954Z,28.90
2022-07-29T10:02:44.882Z,28.73
2022-07-29T10:05:22.841Z,28.84
2022-07-29T10:07:54.487Z,28.94
2022-07-29T10:10:27.958Z,29.15
2022-07-29T10:13:08.030Z,30.08
2022-07-29T10:15:39.807Z,29.51
2022-07-29T10:18:07.146Z,29.11
2022-07-29T10:20:34.052Z,29.27
2022-07-29T10:23:00.669Z,29.49
2022-07-29T10:25:27.516Z,28.86
2022-07-29T10:27:54.739Z,29.79
2022-07-29T10:30:23.809Z,28.78
2022-07-29T10:32:55.986Z,29.34
2022-07-29T10:35:28.998Z,28.68
2022-07-29T10:38:26.540Z,27.67
2022-07-29T10:41:19.844Z,27.05
2022-07-29T10:43:51.297Z,26.88
2022-07-29T10:46:19.131Z,26.21
2022-07-29T10:49:08.602Z,26.89
2022-07-29T10:51:51.180Z,27.17
2022-07-29T10:54:39.682Z,27.08
2022-07-29T10:57:19.647Z,25.87
2022-07-29T10:59:53.066Z,25.96
2022-07-29T11:02:41.576Z,26.65
2022-07-29T11:05:09.982Z,26.87
2022-07-29T11:07:45.668Z,26.35
2022-07-29T11:10:15.867Z,26.28
2022-07-29T11:12:42.852Z,26.31
2022-07-29T11:15:18.165Z,26.15
2022-07-29T11:17:53.880Z,26.73
2022-07-29T11:20:46.295Z,26.72
2022-07-29T11:23:26.313Z,26.82
2022-07-29T11:26:12.881Z,26.55
2022-07-29T11:28:51.288Z,26.47
2022-07-29T11:31:37.236Z,24.79
2022-07-29T11:34:23.690Z,25.48
2022-07-29T11:37:10.150Z,25.97
2022-07-29T11:39:38.465Z,24.43
2022-07-29T11:42:32.468Z,25.70
2022-07-29T11:45:08.416Z,26.08
2022-07-29T11:47:48.937Z,25.36
2022-07-29T11:50:37.111Z,26.19
2022-07-29T11:53:12.095Z,26.39
2022-07-29T11:55:51.236Z,26.84
2022-07-29T11:58:22.801Z,26.70
2022-07-29T12:00:52.520Z,26.44
2022-07-29T12:03:35.138Z,26.12
2022-07-29T12:06:12.447Z,27.24
2022-07-29T12:08:43.179Z,27.18
2022-07-29T12:11:21.406Z,26.07
2022-07-29T12:13:49.424Z,26.35
2022-07-29T12:16:16.393Z,26.21
2022-07-29T12:19:05.345Z,26.61
2022-07-29T12:21:52.236Z,26.12
2022-07-29T12:24:26.591Z,25.46
2022-07-29T12:26:58.715Z,25.97
2022-07-29T12:29:35.237Z,23.44
2022-07-29T12:32:04.520Z,25.51
2022-07-29T12:34:32.072Z,26.03
2022-07-29T12:36:58.680Z,26.15
2022-07-29T12:39:25.503Z,26.55
2022-07-29T12:41:52.284Z,26.01
2022-07-29T12:44:45.258Z,26.61
2022-07-29T12:47:11.713Z,26.41
2022-07-29T12:49:38.371Z,25.52
2022-07-29T12:52:33.513Z,26.85
2022-07-29T12:55:00.569Z,26.04
2022-07-29T12:57:28.214Z,26.88
2022-07-29T13:00:11.241Z,27.09
2022-07-29T13:02:38.734Z,27.12
2022-07-29T13:05:06.545Z,26.72
2022-07-29T13:07:54.364Z,25.88
2022-07-29T13:10:24.484Z,25.51
2022-07-29T13:13:08.817Z,27.10
2022-07-29T13:15:35.880Z,27.39
2022-07-29T13:18:02.897Z,27.83
2022-07-29T13:20:30.519Z,27.21
2022-07-29T13:23:00.949Z,27.58
2022-07-29T13:25:32.193Z,28.28
2022-07-29T13:28:00.510Z,28.95
2022-07-29T13:30:27.097Z,27.10
2022-07-29T13:32:53.664Z,28.34
2022-07-29T13:35:20.431Z,27.72
2022-07-29T13:37:47.214Z,28.31
2022-07-29T13:40:14.289Z,27.88
2022-07-29T13:42:41.720Z,28.54
2022-07-29T13:45:09.712Z,29.35
2022-07-29T13:47:36.234Z,29.53
2022-07-29T13:50:03.016Z,29.90
2022-07-29T13:52:29.892Z,29.96
2022-07-29T13:54:57.027Z,29.63
2022-07-29T13:57:23.524Z,29.84
2022-07-29T13:59:53.890Z,30.34
2022-07-29T14:02:25.360Z,30.57
2022-07-29T14:04:55.939Z,29.95
2022-07-29T14:07:23.114Z,30.79
2022-07-29T14:09:49.620Z,31.03
2022-07-29T14:12:16.063Z,29.95
2022-07-29T14:14:42.586Z,29.58
2022-07-29T14:17:10.054Z,31.00
2022-07-29T14:19:36.911Z,30.34
2022-07-29T14:22:08.528Z,30.43
2022-07-29T14:24:37.313Z,30.52
2022-07-29T14:27:05.383Z,30.60
2022-07-29T14:29:37.368Z,30.74
2022-07-29T14:32:06.697Z,31.44
2022-07-29T14:34:34.009Z,31.13
2022-07-29T14:37:00.435Z,31.10
2022-07-29T14:39:26.869Z,30.35
2022-07-29T14:41:59.081Z,29.29
2022-07-29T14:44:25.991Z,28.74
2022-07-29T14:46:52.429Z,29.58
2022-07-29T14:49:18.899Z,30.02
2022-07-29T14:51:45.365Z,29.82
2022-07-29T14:54:11.802Z,30.31
2022-07-29T14:56:46.638Z,29.16
2022-07-29T14:59:13.788Z,29.86
2022-07-29T15:01:40.337Z,29.69
2022-07-29T15:04:06.872Z,29.21
2022-07-29T15:06:33.324Z,29.80
2022-07-29T15:08:59.763Z,29.84
2022-07-29T15:11:26.243Z,29.29
2022-07-29T15:13:52.721Z,29.55
2022-07-29T15:16:19.184Z,28.71
2022-07-29T15:18:45.684Z,28.39
2022-07-29T15:21:12.089Z,28.43
2022-07-29T15:23:38.525Z,28.53
2022-07-29T15:26:05.418Z,29.03
2022-07-29T15:28:31.852Z,29.09
2022-07-29T15:30:58.349Z,28.52
2022-07-29T15:33:24.788Z,29.56
2022-07-29T15:35:51.264Z,29.36
2022-07-29T15:38:17.988Z,29.29
2022-07-29T15:40:44.443Z,29.50
2022-07-29T15:43:10.941Z,28.57
2022-07-29T15:45:40.337Z,29.08
2022-07-29T15:48:08.786Z,28.97
2022-07-29T15:50:35.745Z,29.29
2022-07-29T15:53:02.545Z,28.80
2022-07-29T15:55:29.046Z,28.76
2022-07-29T15:58:00.251Z,28.91
2022-07-29T16:00:27.056Z,28.78
2022-07-29T16:02:53.527Z,28.58
2022-07-29T16:05:19.956Z,28.15
2022-07-29T16:07:46.430Z,27.87
2022-07-29T16:10:12.906Z,28.39
2022-07-29T16:12:39.326Z,28.08
2022-07-29T16:15:09.712Z,27.90
2022-07-29T16:17:37.294Z,28.19
2022-07-29T16:20:04.806Z,28.18
2022-07-29T16:22:31.346Z,27.96
2022-07-29T16:24:57.798Z,27.45
2022-07-29T16:27:24.297Z,27.72
2022-07-29T16:29:50.733Z,26.92
2022-07-29T16:32:22.098Z,26.55
2022-07-29T16:34:49.043Z,26.39
2022-07-29T16:37:15.514Z,26.15
2022-07-29T16:39:42.888Z,26.18
2022-07-29T16:42:09.939Z,25.91
2022-07-29T16:44:38.070Z,26.13
2022-07-29T16:47:04.597Z,25.38
2022-07-29T16:49:31.475Z,25.62
2022-07-29T16:51:57.924Z,25.58
2022-07-29T16:54:25.387Z,25.88
2022-07-29T16:56:51.813Z,25.34
2022-07-29T16:59:18.272Z,25.73
2022-07-29T17:01:44.735Z,25.59
2022-07-29T17:04:11.203Z,25.26
2022-07-29T17:06:40.885Z,25.04
2022-07-29T17:09:09.036Z,24.83
2022-07-29T17:11:51.772Z,24.83
2022-07-29T17:14:23.990Z,24.45
2022-07-29T17:17:02.901Z,24.90
2022-07-29T17:19:34.364Z,24.93
2022-07-29T17:22:12.594Z,24.70
2022-07-29T17:24:42.376Z,24.59
2022-07-29T17:27:10.101Z,24.14
2022-07-29T17:29:36.639Z,24.32
2022-07-29T17:32:03.091Z,24.35
2022-07-29T17:34:29.538Z,24.41
2022-07-29T17:36:57.073Z,23.83
2022-07-29T17:39:24.056Z,24.30
2022-07-29T17:41:50.615Z,23.93
2022-07-29T17:44:17.026Z,24.17
2022-07-29T17:46:43.513Z,24.45
2022-07-29T17:49:10.103Z,24.27
2022-07-29T17:51:36.596Z,24.28
2022-07-29T17:54:03.197Z,24.36
2022-07-29T17:56:29.606Z,23.82
2022-07-29T17:58:56.078Z,23.94
2022-07-29T18:01:23.452Z,23.82
2022-07-29T18:03:49.912Z,23.84
2022-07-29T18:06:16.353Z,23.93
2022-07-29T18:08:42.758Z,23.18
2022-07-29T18:11:09.176Z,23.49
2022-07-29T18:13:41.490Z,23.27
2022-07-29T18:16:08.263Z,22.92
2022-07-29T18:18:35.159Z,23.18
2022-07-29T18:21:02.033Z,22.97
2022-07-29T18:23:28.456Z,23.12
2022-07-29T18:25:54.902Z,22.91
2022-07-29T18:28:21.328Z,23.20
2022-07-29T18:30:47.951Z,23.34
2022-07-29T18:33:22.629Z,23.31
2022-07-29T18:35:51.038Z,23.38
2022-07-29T18:38:17.981Z,22.83
2022-07-29T18:40:44.728Z,22.81
2022-07-29T18:43:12.650Z,22.94
2022-07-29T18:45:39.577Z,23.12
2022-07-29T18:48:06.616Z,22.76
2022-07-29T18:50:33.032Z,22.87
2022-07-29T18:52:59.580Z,23.03
2022-07-29T18:55:26.138Z,23.03
2022-07-29T18:57:54.426Z,22.57
2022-07-29T19:00:24.129Z,22.82
2022-07-29T19:02:50.970Z,22.69
2022-07-29T19:05:17.511Z,22.81
2022-07-29T19:07:43.967Z,22.32
2022-07-29T19:10:10.557Z,22.32
2022-07-29T19:12:36.998Z,22.27
2022-07-29T19:15:03.801Z,22.18
2022-07-29T19:17:30.237Z,22.39
2022-07-29T19:19:56.683Z,22.29
2022-07-29T19:22:23.564Z,22.29
2022-07-29T19:24:50.748Z,21.74
2022-07-29T19:27:17.403Z,21.68
2022-07-29T19:29:43.859Z,21.56
2022-07-29T19:32:10.656Z,21.27
2022-07-29T19:34:37.131Z,21.33
2022-07-29T19:37:03.790Z,21.71
2022-07-29T19:39:31.918Z,21.70
2022-07-29T19:42:03.453Z,20.99
2022-07-29T19:44:30.260Z,21.34
2022-07-29T19:46:57.038Z,21.29
2022-07-29T19:49:23.920Z,20.96
2022-07-29T19:51:50.441Z,21.31
2022-07-29T19:54:19.851Z,21.09
2022-07-29T19:56:46.299Z,21.13
2022-07-29T19:59:12.731Z,21.09
2022-07-29T20:01:39.561Z,20.61
2022-07-29T20:04:06.056Z,20.88
2022-07-29T20:06:32.645Z,20.37
2022-07-29T20:08:59.213Z,20.76
2022-07-29T20:11:25.755Z,20.24
2022-07-29T20:13:52.171Z,20.48
2022-07-29T20:16:18.840Z,20.43
2022-07-29T20:18:45.313Z,20.73
2022-07-29T20:21:11.770Z,20.44
2022-07-29T20:23:38.198Z,20.02
2022-07-29T20:26:09.324Z,20.27
2022-07-29T20:28:35.842Z,20.43
2022-07-29T20:31:02.350Z,20.43
2022-07-29T20:33:28.880Z,19.98
2022-07-29T20:35:55.314Z,20.31
2022-07-29T20:38:21.768Z,20.16
2022-07-29T20:40:48.175Z,20.17
2022-07-29T20:43:14.578Z,20.05
2022-07-29T20:45:41.007Z,19.96
2022-07-29T20:48:08.478Z,19.94
2022-07-29T20:50:35.042Z,20.17
2022-07-29T20:53:01.470Z,19.86
2022-07-29T20:55:28.008Z,19.59
2022-07-29T20:57:54.421Z,20.20
2022-07-29T21:00:20.842Z,20.16
2022-07-29T21:02:47.406Z,20.01
2022-07-29T21:05:14.055Z,19.96
2022-07-29T21:07:40.534Z,19.86
2022-07-29T21:10:07.361Z,19.91
2022-07-29T21:12:33.796Z,19.97
2022-07-29T21:15:00.246Z,19.97
2022-07-29T21:17:26.671Z,19.84
2022-07-29T21:19:53.108Z,19.72
2022-07-29T21:22:20.821Z,19.85
2022-07-29T21:24:47.545Z,19.95
2022-07-29T21:27:20.621Z,19.70
2022-07-29T21:29:48.106Z,19.70
2022-07-29T21:32:14.738Z,19.78
2022-07-29T21:34:55.941Z,19.53
2022-07-29T21:37:22.419Z,19.79
2022-07-29T21:39:48.818Z,19.87
2022-07-29T21:42:15.279Z,19.52
2022-07-29T21:44:41.699Z,19.55
2022-07-29T21:47:09.315Z,19.73
2022-07-29T21:49:36.124Z,19.41
2022-07-29T21:52:04.297Z,19.04
2022-07-29T21:54:31.282Z,19.46
2022-07-29T21:56:57.912Z,18.99
2022-07-29T21:59:24.865Z,19.12
2022-07-29T22:01:51.410Z,19.37
2022-07-29T22:04:19.064Z,19.43
2022-07-29T22:06:45.547Z,19.37
2022-07-29T22:09:12.043Z,19.39
2022-07-29T22:11:38.518Z,19.44
2022-07-29T22:14:05.663Z,19.17
2022-07-29T22:16:32.139Z,19.31
2022-07-29T22:18:58.615Z,19.37
2022-07-29T22:21:25.076Z,18.90
2022-07-29T22:23:51.520Z,19.21
2022-07-29T22:26:17.990Z,18.99
2022-07-29T22:28:44.491Z,18.98
2022-07-29T22:31:11.125Z,18.89
2022-07-29T22:33:37.870Z,19.11
2022-07-29T22:36:04.506Z,19.13
2022-07-29T22:38:30.934Z,18.84
2022-07-29T22:41:00.674Z,18.91
2022-07-29T22:43:28.349Z,18.83
2022-07-29T22:45:54.855Z,18.87
2022-07-29T22:48:21.351Z,18.91
2022-07-29T22:50:47.856Z,18.94
2022-07-29T22:53:14.316Z,18.70
2022-07-29T22:55:40.782Z,18.78
2022-07-29T22:58:07.239Z,18.42
2022-07-29T23:00:33.771Z,18.42
2022-07-29T23:03:00.384Z,18.64
2022-07-29T23:05:26.833Z,18.36
2022-07-29T23:07:53.320Z,18.56
2022-07-29T23:10:19.760Z,18.44
2022-07-29T23:12:46.205Z,18.53
2022-07-29T23:15:12.872Z,18.49
2022-07-29T23:17:39.445Z,18.53
2022-07-29T23:20:07.999Z,18.40
2022-07-29T23:22:35.955Z,18.25
2022-07-29T23:25:02.619Z,17.87
2022-07-29T23:27:29.250Z,18.23
2022-07-29T23:29:55.735Z,18.03
2022-07-29T23:32:22.210Z,18.31
2022-07-29T23:34:48.719Z,18.37
2022-07-29T23:37:15.160Z,18.38
2022-07-29T23:39:41.820Z,18.20
2022-07-29T23:42:09.514Z,18.16
2022-07-29T23:44:35.968Z,17.67
2022-07-29T23:47:02.894Z,17.98
2022-07-29T23:49:29.738Z,17.90
2022-07-29T23:51:56.235Z,17.95
2022-07-29T23:54:22.754Z,17.91
2022-07-29T23:56:49.315Z,17.66
2022-07-29T23:59:15.821Z,17.94
